Time;durP1;ratioP1;P1;durP2;ratioP2;P2;SDS_P1;SDS_P2;PMS_P1;PMS_P2;Temp;Humidity;BMP_temperature;BMP_pressure;BME280_temperature;BME280_humidity;BME280_pressure;Samples;Min_cycle;Max_cycle;Signal;HPM_P1;HPM_P2
2021/09/20 00:00:00;;;;;;;2.40;1.30;;;;;;;9.46;83.54;99577.59;1744077;81;21814;-74
2021/09/20 00:02:26;;;;;;;2.03;1.13;;;;;;;9.48;83.62;99582.67;1752771;80;21177;-74
2021/09/20 00:04:55;;;;;;;1.82;1.10;;;;;;;9.45;83.52;99569.34;1753608;80;21312;-73
2021/09/20 00:07:23;;;;;;;1.70;0.90;;;;;;;9.44;83.63;99581.05;1749306;80;21494;-74
2021/09/20 00:09:49;;;;;;;2.37;1.10;;;;;;;9.44;83.63;99575.72;1736644;80;21051;-74
2021/09/20 00:12:18;;;;;;;1.47;0.90;;;;;;;9.45;83.43;99569.88;1735736;80;21944;-73
2021/09/20 00:14:45;;;;;;;1.92;1.10;;;;;;;9.47;83.54;99569.84;1739805;81;21108;-74
2021/09/20 00:17:11;;;;;;;2.00;1.15;;;;;;;9.50;83.57;99570.64;1741187;80;21094;-74
2021/09/20 00:19:39;;;;;;;2.12;0.95;;;;;;;9.52;83.37;99577.84;1738796;80;21118;-75
2021/09/20 00:22:06;;;;;;;1.32;1.00;;;;;;;9.50;83.33;99567.97;1738195;81;21533;-76
2021/09/20 00:24:34;;;;;;;3.12;1.20;;;;;;;9.47;83.21;99575.18;1744123;81;21179;-76
2021/09/20 00:27:01;;;;;;;2.50;1.07;;;;;;;9.45;83.22;99561.34;1748959;80;21345;-77
2021/09/20 00:29:29;;;;;;;3.15;1.07;;;;;;;9.46;83.36;99566.14;1750339;80;21037;-76
2021/09/20 00:31:58;;;;;;;1.77;1.10;;;;;;;9.45;83.48;99561.34;1739931;81;21004;-76
2021/09/20 00:34:26;;;;;;;2.65;1.10;;;;;;;9.46;83.40;99563.47;1739183;81;21082;-77
2021/09/20 00:36:55;;;;;;;1.27;0.80;;;;;;;9.47;83.41;99557.06;1760191;79;21007;-77
2021/09/20 00:39:23;;;;;;;1.67;1.00;;;;;;;9.47;83.48;99556.52;1747632;80;21039;-75
2021/09/20 00:41:51;;;;;;;1.27;0.90;;;;;;;9.47;83.40;99555.19;1749703;80;21584;-74
2021/09/20 00:44:19;;;;;;;1.67;0.90;;;;;;;9.47;83.36;99549.86;1749572;80;21319;-74
2021/09/20 00:46:45;;;;;;;2.47;1.20;;;;;;;9.49;83.26;99552.27;1739924;81;21697;-75
2021/09/20 00:49:14;;;;;;;1.45;0.90;;;;;;;9.49;83.20;99549.06;1781884;79;21123;-77
2021/09/20 00:51:41;;;;;;;1.72;1.00;;;;;;;9.51;83.19;99550.11;1746302;80;21022;-74
2021/09/20 00:54:07;;;;;;;2.17;1.00;;;;;;;9.53;82.96;99548.77;1765540;79;21140;-75
2021/09/20 00:56:34;;;;;;;1.82;0.88;;;;;;;9.54;82.98;99556.22;1745601;79;21031;-74
2021/09/20 00:59:01;;;;;;;1.57;0.93;;;;;;;9.55;83.06;99557.84;1764300;79;21782;-74
2021/09/20 01:01:27;;;;;;;2.05;1.00;;;;;;;9.58;83.08;99551.96;1771370;80;21003;-76
2021/09/20 01:03:54;;;;;;;1.45;0.90;;;;;;;9.56;82.88;99561.55;1742090;81;21546;-76
2021/09/20 01:06:21;;;;;;;1.92;1.00;;;;;;;9.55;82.88;99547.97;1741205;81;22157;-75
2021/09/20 01:08:48;;;;;;;1.92;1.07;;;;;;;9.54;82.84;99546.89;1744864;80;21038;-76
2021/09/20 01:11:15;;;;;;;1.72;1.00;;;;;;;9.52;83.00;99551.18;1711791;81;21053;-76
2021/09/20 01:13:45;;;;;;;1.65;0.98;;;;;;;9.49;83.19;99548.27;1738739;80;21191;-75
2021/09/20 01:16:11;;;;;;;1.72;0.98;;;;;;;9.46;83.41;99545.61;1739564;81;21007;-75
2021/09/20 01:18:40;;;;;;;1.60;0.95;;;;;;;9.45;83.48;99544.56;1771200;79;20976;-75
2021/09/20 01:21:06;;;;;;;1.70;0.93;;;;;;;9.40;83.80;99538.16;1772807;80;21129;-75
2021/09/20 01:23:33;;;;;;;1.75;1.10;;;;;;;9.37;84.06;99537.91;1767628;79;21101;-75
2021/09/20 01:25:59;;;;;;;1.95;1.00;;;;;;;9.33;84.33;99537.67;1770458;80;21051;-74
2021/09/20 01:28:26;;;;;;;1.62;1.00;;;;;;;9.30;84.60;99538.75;1770074;79;21085;-74
2021/09/20 01:30:54;;;;;;;0.95;0.80;;;;;;;9.28;84.58;99534.22;1762600;79;21898;-71
2021/09/20 01:33:21;;;;;;;1.65;1.00;;;;;;;9.28;84.76;99537.70;1759652;80;21059;-71
2021/09/20 01:35:48;;;;;;;2.33;0.98;;;;;;;9.29;84.75;99535.83;1766734;79;21533;-72
2021/09/20 01:38:15;;;;;;;1.65;0.85;;;;;;;9.30;84.64;99538.75;1767838;79;21588;-71
2021/09/20 01:40:41;;;;;;;2.33;0.90;;;;;;;9.32;84.63;99540.62;1766233;79;21019;-71
2021/09/20 01:43:08;;;;;;;1.40;0.90;;;;;;;9.33;84.56;99533.67;1768388;79;21807;-71
2021/09/20 01:45:36;;;;;;;1.22;0.78;;;;;;;9.33;84.47;99540.88;1773609;79;21076;-71
2021/09/20 01:48:03;;;;;;;1.22;0.90;;;;;;;9.35;84.36;99536.87;1770949;79;21034;-71
2021/09/20 01:50:30;;;;;;;1.15;0.85;;;;;;;9.36;84.26;99533.66;1768865;79;21007;-70
2021/09/20 01:52:57;;;;;;;1.40;0.90;;;;;;;9.38;84.46;99536.87;1743033;80;21011;-71
2021/09/20 01:55:24;;;;;;;2.47;1.10;;;;;;;9.40;84.62;99537.38;1745790;81;21509;-70
2021/09/20 01:57:50;;;;;;;1.98;0.90;;;;;;;9.37;84.76;99530.72;1774658;80;21043;-70
2021/09/20 02:00:17;;;;;;;1.67;0.90;;;;;;;9.33;85.16;99548.33;1756260;80;21658;-71
2021/09/20 02:02:44;;;;;;;1.95;1.10;;;;;;;9.32;85.43;99532.62;1744288;80;21565;-71
2021/09/20 02:05:11;;;;;;;1.05;0.80;;;;;;;9.31;85.52;99528.34;1748739;81;21031;-71
2021/09/20 02:07:41;;;;;;;1.80;1.10;;;;;;;9.30;85.70;99525.43;1764565;79;21023;-72
2021/09/20 02:10:11;;;;;;;4.87;1.65;;;;;;;9.29;85.77;99523.84;1743471;80;21027;-71
2021/09/20 02:12:39;;;;;;;1.42;1.00;;;;;;;9.28;85.93;99522.23;1772302;79;21613;-71
2021/09/20 02:15:08;;;;;;;2.15;0.70;;;;;;;9.28;85.95;99519.56;1748034;80;21074;-72
2021/09/20 02:17:36;;;;;;;1.80;0.90;;;;;;;9.29;86.04;99519.30;1746565;80;21098;-69
2021/09/20 02:20:05;;;;;;;2.00;0.80;;;;;;;9.26;85.95;99524.39;1738625;80;21777;-70
2021/09/20 02:22:34;;;;;;;2.40;1.07;;;;;;;9.27;85.98;99522.77;1751249;80;21054;-70
2021/09/20 02:25:00;;;;;;;1.57;0.80;;;;;;;9.27;86.11;99509.44;1759681;79;21090;-72
2021/09/20 02:27:26;;;;;;;1.80;1.20;;;;;;;9.28;86.00;99519.56;1757418;80;21017;-70
2021/09/20 02:29:53;;;;;;;2.42;0.80;;;;;;;9.30;86.24;99516.10;1754098;79;20991;-70
2021/09/20 02:32:21;;;;;;;1.75;0.90;;;;;;;9.29;86.29;99507.31;1751844;79;22179;-71
2021/09/20 02:34:48;;;;;;;3.10;0.90;;;;;;;9.30;86.27;99514.77;1763133;79;21086;-70
2021/09/20 02:37:14;;;;;;;1.98;1.20;;;;;;;9.32;86.30;99519.30;1750699;80;21006;-71
2021/09/20 02:39:41;;;;;;;1.55;0.88;;;;;;;9.31;86.22;99517.17;1748265;81;21545;-70
2021/09/20 02:42:08;;;;;;;2.77;0.98;;;;;;;9.30;86.24;99522.22;1756284;80;21054;-70
2021/09/20 02:44:34;;;;;;;1.52;0.98;;;;;;;9.30;86.20;99522.77;1751379;80;21792;-72
2021/09/20 02:47:01;;;;;;;1.37;0.90;;;;;;;9.30;86.15;99513.44;1750955;79;21070;-70
2021/09/20 02:49:28;;;;;;;2.60;0.80;;;;;;;9.31;86.21;99517.17;1749847;81;22292;-69
2021/09/20 02:51:56;;;;;;;1.00;0.80;;;;;;;9.36;86.19;99520.34;1750895;81;21090;-70
2021/09/20 02:54:22;;;;;;;1.65;0.80;;;;;;;9.35;86.26;99516.88;1752060;79;21190;-71
2021/09/20 02:56:49;;;;;;;1.47;1.00;;;;;;;9.34;86.30;99519.80;1749841;81;21790;-72
2021/09/20 02:59:15;;;;;;;1.77;0.82;;;;;;;9.31;86.36;99519.84;1749613;81;21638;-72
2021/09/20 03:01:42;;;;;;;2.62;1.10;;;;;;;9.28;86.43;99516.90;1753352;81;21609;-72
2021/09/20 03:04:09;;;;;;;2.35;1.00;;;;;;;9.26;86.75;99508.40;1744679;80;21110;-72
2021/09/20 03:06:36;;;;;;;1.15;0.78;;;;;;;9.23;87.07;99510.28;1745098;80;21039;-72
2021/09/20 03:09:04;;;;;;;1.15;0.82;;;;;;;9.24;87.10;99509.20;1772666;80;20997;-71
2021/09/20 03:11:31;;;;;;;1.72;0.95;;;;;;;9.23;87.30;99520.39;1740333;80;21466;-71
2021/09/20 03:13:59;;;;;;;1.40;0.80;;;;;;;9.23;87.60;99510.28;1764358;80;21518;-72
2021/09/20 03:16:27;;;;;;;2.77;1.10;;;;;;;9.24;87.74;99521.19;1765673;79;21083;-71
2021/09/20 03:18:55;;;;;;;1.55;0.80;;;;;;;9.23;87.90;99511.06;1765431;80;21059;-72
2021/09/20 03:21:24;;;;;;;1.50;0.90;;;;;;;9.24;87.95;99513.19;1763500;79;21063;-71
2021/09/20 03:23:52;;;;;;;2.35;1.00;;;;;;;9.24;88.00;99525.98;1740618;80;21022;-70
2021/09/20 03:26:19;;;;;;;2.00;1.00;;;;;;;9.23;88.22;99523.06;1772022;79;21601;-71
2021/09/20 03:28:48;;;;;;;2.27;0.90;;;;;;;9.21;88.43;99528.39;1774258;80;21045;-71
2021/09/20 03:31:14;;;;;;;1.82;0.78;;;;;;;9.19;88.85;99521.22;1776133;80;21034;-71
2021/09/20 03:33:43;;;;;;;1.25;0.88;;;;;;;9.18;89.11;99522.27;1767815;80;21576;-70
2021/09/20 03:36:09;;;;;;;4.30;1.47;;;;;;;9.16;89.44;99524.69;1769973;79;21001;-70
2021/09/20 03:38:37;;;;;;;3.95;1.10;;;;;;;9.16;89.57;99526.56;1772391;80;21104;-72
2021/09/20 03:41:03;;;;;;;2.15;1.22;;;;;;;9.13;89.83;99529.22;1774869;79;21027;-71
2021/09/20 03:43:31;;;;;;;1.40;1.00;;;;;;;9.12;90.06;99529.51;1768696;80;21129;-70
2021/09/20 03:45:59;;;;;;;2.00;1.30;;;;;;;9.13;90.21;99535.09;1766409;80;20979;-71
2021/09/20 03:48:27;;;;;;;1.77;1.05;;;;;;;9.12;90.40;99530.30;1769319;79;20988;-72
2021/09/20 03:50:55;;;;;;;2.05;1.10;;;;;;;9.10;90.55;99533.77;1771267;80;20997;-71
2021/09/20 03:53:22;;;;;;;1.20;0.90;;;;;;;9.12;90.76;99535.63;1773728;80;21195;-71
2021/09/20 03:55:48;;;;;;;2.22;1.00;;;;;;;9.12;91.02;99531.63;1766183;80;21585;-71
2021/09/20 03:58:15;;;;;;;1.25;0.90;;;;;;;9.13;91.12;99545.75;1744126;80;21104;-71
2021/09/20 04:00:42;;;;;;;2.08;1.07;;;;;;;9.14;91.40;99542.80;1742875;80;21540;-71
2021/09/20 04:03:10;;;;;;;1.45;0.90;;;;;;;9.16;91.58;99540.67;1774266;79;21515;-71
2021/09/20 04:05:37;;;;;;;2.00;1.00;;;;;;;9.19;91.76;99545.20;1771214;79;21008;-71
2021/09/20 04:08:04;;;;;;;1.75;1.00;;;;;;;9.23;91.92;99550.24;1773043;79;21011;-71
2021/09/20 04:10:31;;;;;;;1.45;0.90;;;;;;;9.24;91.92;99550.50;1767706;80;21203;-72
2021/09/20 04:12:57;;;;;;;1.95;0.88;;;;;;;9.26;91.98;99552.36;1769074;80;21170;-71
2021/09/20 04:15:24;;;;;;;1.30;0.72;;;;;;;9.25;91.84;99547.58;1767349;79;21530;-71
2021/09/20 04:17:51;;;;;;;1.65;1.00;;;;;;;9.28;91.98;99559.02;1769727;79;20960;-71
2021/09/20 04:20:19;;;;;;;1.72;1.07;;;;;;;9.31;92.02;99547.00;1750402;80;21071;-71
2021/09/20 04:22:46;;;;;;;1.55;0.90;;;;;;;9.30;91.95;99559.53;1738347;80;21486;-70
2021/09/20 04:25:12;;;;;;;1.55;1.07;;;;;;;9.28;91.77;99568.34;1763905;80;22396;-71
2021/09/20 04:27:39;;;;;;;2.27;0.90;;;;;;;9.29;91.95;99563.81;1743313;81;21070;-71
2021/09/20 04:30:08;;;;;;;1.20;0.90;;;;;;;9.28;91.79;99574.19;1739256;80;21145;-70
2021/09/20 04:32:36;;;;;;;1.77;1.10;;;;;;;9.29;91.70;99577.14;1763489;79;21044;-71
2021/09/20 04:35:05;;;;;;;1.30;0.80;;;;;;;9.32;91.84;99576.05;1744882;81;21278;-70
2021/09/20 04:37:31;;;;;;;1.72;1.10;;;;;;;9.38;91.81;99579.51;1767400;79;21020;-70
2021/09/20 04:39:58;;;;;;;2.52;1.12;;;;;;;9.38;91.44;99576.84;1743423;80;21009;-71
2021/09/20 04:42:24;;;;;;;1.67;1.10;;;;;;;9.39;91.37;99591.75;1768624;79;21095;-70
2021/09/20 04:44:52;;;;;;;1.62;0.90;;;;;;;9.38;91.26;99582.17;1746897;79;20957;-71
2021/09/20 04:47:19;;;;;;;2.33;1.02;;;;;;;9.40;91.17;99586.14;1771505;79;21117;-71
2021/09/20 04:49:47;;;;;;;1.80;1.12;;;;;;;9.44;91.07;99589.59;1767001;79;20996;-71
2021/09/20 04:52:21;;;;;;;1.45;1.00;;;;;;;9.45;91.00;99578.67;1752750;79;21056;-70
2021/09/20 04:54:51;;;;;;;1.47;1.00;;;;;;;9.49;91.08;99580.25;1750587;80;20998;-70
2021/09/20 04:57:21;;;;;;;1.75;0.90;;;;;;;9.52;91.03;99585.83;1718218;81;21061;-70
2021/09/20 04:59:50;;;;;;;1.67;1.10;;;;;;;9.57;90.93;99595.66;1752640;79;21945;-69
2021/09/20 05:02:20;;;;;;;2.35;1.10;;;;;;;9.60;90.68;99588.45;1750846;79;21331;-70
2021/09/20 05:04:47;;;;;;;2.58;1.30;;;;;;;9.61;90.58;99596.20;1749887;81;21516;-71
2021/09/20 05:07:20;;;;;;;1.40;1.10;;;;;;;9.65;90.49;99594.31;1747085;79;21016;-70
2021/09/20 05:09:54;;;;;;;2.85;1.25;;;;;;;9.65;90.21;99600.44;1755573;80;21082;-70
2021/09/20 05:12:27;;;;;;;2.37;1.10;;;;;;;9.60;90.02;99606.58;1773283;79;21039;-71
2021/09/20 05:15:03;;;;;;;2.42;1.30;;;;;;;9.55;90.20;99599.95;1754762;79;21487;-72
2021/09/20 05:17:32;;;;;;;1.92;1.30;;;;;;;9.54;90.37;99605.54;1771313;79;21015;-71
2021/09/20 05:20:05;;;;;;;2.85;1.22;;;;;;;9.54;90.40;99606.88;1737434;80;21482;-71
2021/09/20 05:22:35;;;;;;;1.67;1.10;;;;;;;9.56;90.27;99600.20;1739625;80;21065;-71
2021/09/20 05:25:11;;;;;;;1.83;1.10;;;;;;;9.57;90.37;99608.45;1739623;80;21925;-71
2021/09/20 05:27:44;;;;;;;2.10;1.13;;;;;;;9.56;90.18;99605.53;1739608;81;21771;-71
2021/09/20 05:30:19;;;;;;;1.85;1.20;;;;;;;9.56;90.30;99606.88;1741753;81;21225;-71
2021/09/20 05:32:52;;;;;;;1.47;1.05;;;;;;;9.55;90.33;99625.81;1734537;80;21574;-70
2021/09/20 05:35:21;;;;;;;2.22;1.30;;;;;;;9.55;90.43;99611.16;1766417;80;21035;-70
2021/09/20 05:37:53;;;;;;;2.85;1.30;;;;;;;9.57;90.57;99617.78;1766597;79;21534;-71
2021/09/20 05:40:26;;;;;;;2.75;1.15;;;;;;;9.62;90.67;99617.78;1769380;80;21028;-70
2021/09/20 05:43:07;;;;;;;2.40;1.10;;;;;;;9.67;90.38;99630.28;1765900;79;21035;-70
2021/09/20 05:45:40;;;;;;;1.22;0.93;;;;;;;9.68;90.11;99629.77;1767881;80;21058;-71
2021/09/20 05:48:10;;;;;;;2.10;1.10;;;;;;;9.68;90.18;99647.89;1768054;80;21108;-70
2021/09/20 05:50:57;;;;;;;1.90;1.10;;;;;;;9.67;89.95;99634.81;1778684;80;21517;-71
2021/09/20 05:59:39;;;;;;;2.35;1.10;;;;;;;9.73;89.97;99655.06;1732409;80;21008;-70
2021/09/20 06:02:29;;;;;;;2.17;1.30;;;;;;;9.76;89.44;99645.19;1708027;82;21020;-71
2021/09/20 06:05:13;;;;;;;2.10;1.10;;;;;;;9.77;89.46;99646.77;1727174;81;21984;-70
2021/09/20 06:08:00;;;;;;;2.05;1.17;;;;;;;9.80;89.18;99653.69;1759351;81;21819;-71
2021/09/20 06:10:30;;;;;;;3.00;1.60;;;;;;;9.84;88.90;99645.42;1727896;81;21173;-71
2021/09/20 06:12:58;;;;;;;2.23;1.40;;;;;;;9.93;88.89;99648.84;1792563;78;21744;-71
2021/09/20 06:15:25;;;;;;;1.80;1.00;;;;;;;9.92;89.04;99660.05;1797220;79;21348;-70
2021/09/20 06:17:53;;;;;;;3.42;1.40;;;;;;;9.95;89.15;99671.50;1793769;79;21288;-70
2021/09/20 06:20:20;;;;;;;2.20;1.20;;;;;;;9.96;88.78;99666.42;1799545;79;21102;-72
2021/09/20 06:22:49;;;;;;;1.70;1.10;;;;;;;9.96;88.69;99674.42;1759931;79;21085;-72
2021/09/20 06:25:16;;;;;;;1.73;1.10;;;;;;;9.95;88.72;99675.50;1786356;78;21248;-72
2021/09/20 06:27:43;;;;;;;1.27;1.10;;;;;;;9.96;88.80;99702.97;1794086;78;21342;-72
2021/09/20 06:30:11;;;;;;;2.83;1.40;;;;;;;9.97;88.72;99676.55;1781797;78;21906;-72
2021/09/20 06:32:39;;;;;;;1.90;1.20;;;;;;;10.01;88.86;99678.41;1773218;78;21423;-72
2021/09/20 06:35:07;;;;;;;2.00;1.10;;;;;;;10.07;88.59;99675.19;1805211;78;21249;-72
2021/09/20 06:37:34;;;;;;;2.23;1.30;;;;;;;10.11;88.56;99676.23;1808594;78;21375;-73
2021/09/20 06:40:01;;;;;;;1.77;1.23;;;;;;;10.16;88.59;99674.06;1757215;80;21357;-72
2021/09/20 06:42:28;;;;;;;1.80;1.30;;;;;;;10.19;88.23;99681.52;1778401;79;21805;-73
2021/09/20 06:44:56;;;;;;;2.13;1.30;;;;;;;10.19;88.19;99690.86;1776091;79;38452;-73
2021/09/20 06:47:24;;;;;;;1.67;1.13;;;;;;;10.20;88.11;99687.11;1776798;78;21368;-75
2021/09/20 06:49:51;;;;;;;2.93;1.50;;;;;;;10.21;88.14;99664.70;1783731;79;21125;-73
2021/09/20 06:52:18;;;;;;;1.90;1.20;;;;;;;10.22;88.12;99687.64;1771538;79;21198;-74
2021/09/20 06:54:45;;;;;;;3.27;1.30;;;;;;;10.27;88.07;99683.66;1756323;79;21157;-74
2021/09/20 06:57:11;;;;;;;1.80;1.30;;;;;;;10.32;87.86;99688.40;1756440;80;21897;-73
2021/09/20 06:59:38;;;;;;;2.03;1.40;;;;;;;10.37;87.48;99708.95;1741167;81;21335;-74
2021/09/20 07:02:05;;;;;;;3.33;1.63;;;;;;;10.40;87.27;99702.23;1789960;78;21260;-74
2021/09/20 07:04:32;;;;;;;2.50;1.40;;;;;;;10.37;87.04;99695.60;1780496;79;21110;-73
2021/09/20 07:06:59;;;;;;;3.83;1.40;;;;;;;10.40;86.97;99702.23;1770278;79;21090;-78
2021/09/20 07:09:26;;;;;;;2.37;1.40;;;;;;;10.43;86.79;99691.83;1782373;79;21308;-73
2021/09/20 07:11:52;;;;;;;3.03;1.70;;;;;;;10.47;86.87;99706.75;1776412;79;21317;-73
2021/09/20 07:14:19;;;;;;;3.73;1.70;;;;;;;10.53;87.00;99711.78;1774177;79;21307;-72
2021/09/20 07:16:46;;;;;;;3.30;1.50;;;;;;;10.55;86.58;99714.95;1772021;79;21177;-71
2021/09/20 07:19:14;;;;;;;3.23;1.80;;;;;;;10.53;86.21;99715.79;1791499;79;21201;-72
2021/09/20 07:21:42;;;;;;;3.40;1.60;;;;;;;10.55;86.43;99706.95;1783192;78;21827;-69
2021/09/20 07:24:10;;;;;;;3.00;1.70;;;;;;;10.60;86.11;99735.50;1777439;79;21159;-70
2021/09/20 07:26:36;;;;;;;4.37;1.70;;;;;;;10.60;85.93;99720.81;1797840;78;21839;-69
2021/09/20 07:29:03;;;;;;;2.90;1.70;;;;;;;10.62;85.97;99723.20;1782287;79;21707;-69
2021/09/20 07:31:31;;;;;;;2.87;1.60;;;;;;;10.64;85.74;99742.42;1797292;78;21265;-69
2021/09/20 07:33:58;;;;;;;2.33;1.37;;;;;;;10.62;85.61;99733.34;1777651;79;21243;-70
2021/09/20 07:36:25;;;;;;;3.40;1.53;;;;;;;10.62;85.67;99729.33;1782926;79;21304;-70
2021/09/20 07:38:52;;;;;;;3.30;1.60;;;;;;;10.64;85.83;99739.21;1775950;79;21395;-72
2021/09/20 07:41:18;;;;;;;2.87;1.50;;;;;;;10.65;85.57;99732.78;1778621;78;21338;-70
2021/09/20 07:43:45;;;;;;;3.27;1.50;;;;;;;10.70;85.87;99734.64;1776449;79;21126;-69
2021/09/20 07:46:14;;;;;;;3.87;1.53;;;;;;;10.72;85.96;99738.61;1778825;79;21314;-70
2021/09/20 07:48:41;;;;;;;3.53;1.70;;;;;;;10.75;86.03;99743.94;1782510;79;21585;-72
2021/09/20 07:51:08;;;;;;;2.73;1.40;;;;;;;10.81;85.89;99741.50;1783668;79;21398;-70
2021/09/20 07:53:35;;;;;;;2.57;1.40;;;;;;;10.87;85.98;99736.92;1793228;79;21152;-69
2021/09/20 07:56:01;;;;;;;3.17;1.53;;;;;;;10.90;85.68;99741.17;1789688;79;21310;-69
2021/09/20 07:58:28;;;;;;;2.50;1.60;;;;;;;10.90;85.59;99749.19;1786994;79;21230;-70
2021/09/20 08:00:54;;;;;;;2.37;1.50;;;;;;;10.93;85.49;99737.15;1779111;79;21882;-71
2021/09/20 08:03:22;;;;;;;2.70;1.60;;;;;;;10.97;85.51;99753.67;1777316;78;21126;-69
2021/09/20 08:05:52;;;;;;;2.90;1.80;;;;;;;10.96;85.27;99749.41;1784874;80;21498;-69
2021/09/20 08:08:20;;;;;;;2.53;1.50;;;;;;;10.94;85.31;99744.88;1781128;79;21529;-71
2021/09/20 08:10:48;;;;;;;2.80;1.83;;;;;;;10.93;85.27;99752.64;1777757;78;21176;-71
2021/09/20 08:13:17;;;;;;;3.07;1.93;;;;;;;10.96;85.42;99753.42;1780788;78;21293;-71
2021/09/20 08:15:45;;;;;;;3.17;2.17;;;;;;;11.06;85.59;99773.13;1790211;78;22026;-70
2021/09/20 08:18:12;;;;;;;3.00;2.10;;;;;;;11.06;84.99;99752.55;1787700;78;21399;-70
2021/09/20 08:20:41;;;;;;;3.70;1.93;;;;;;;11.12;85.06;99750.61;1784228;78;21283;-70
2021/09/20 08:23:09;;;;;;;3.97;1.80;;;;;;;11.12;84.55;99758.11;1785364;78;21316;-70
2021/09/20 08:25:36;;;;;;;3.57;1.93;;;;;;;11.14;84.75;99758.61;1789475;78;21578;-70
2021/09/20 08:28:03;;;;;;;3.20;2.00;;;;;;;11.20;84.86;99772.73;1792207;78;21731;-70
2021/09/20 08:30:29;;;;;;;3.43;2.03;;;;;;;11.28;84.61;99755.54;1787827;78;21390;-70
2021/09/20 08:32:58;;;;;;;4.83;2.30;;;;;;;11.37;84.76;99769.66;1782145;78;21755;-71
2021/09/20 08:35:25;;;;;;;5.13;1.90;;;;;;;11.49;84.64;99763.39;1735807;81;21323;-70
2021/09/20 08:37:52;;;;;;;3.00;2.07;;;;;;;11.60;84.10;99757.40;1727373;81;21321;-70
2021/09/20 08:40:19;;;;;;;3.23;1.90;;;;;;;11.66;83.47;99752.27;1734374;81;21470;-70
2021/09/20 08:42:46;;;;;;;2.83;1.70;;;;;;;11.67;83.04;99761.88;1802420;78;21747;-70
2021/09/20 08:45:16;;;;;;;3.63;1.80;;;;;;;11.73;82.70;99761.53;1730237;81;21384;-70
2021/09/20 08:47:45;;;;;;;3.47;2.03;;;;;;;11.82;82.37;99763.05;1778217;80;21301;-70
2021/09/20 08:50:13;;;;;;;2.90;1.60;;;;;;;12.04;81.42;99772.47;1785360;79;21268;-70
2021/09/20 08:52:40;;;;;;;4.77;2.07;;;;;;;12.04;81.42;99772.47;1777087;78;21944;-69
2021/09/20 08:55:07;;;;;;;2.43;1.60;;;;;;;12.15;81.47;99775.30;1780888;79;21285;-70
2021/09/20 08:57:34;;;;;;;3.80;1.87;;;;;;;12.22;80.87;99771.72;1772218;80;21590;-71
2021/09/20 09:00:04;;;;;;;3.63;1.80;;;;;;;12.17;79.96;99775.79;1778552;79;21829;-70
2021/09/20 09:02:31;;;;;;;3.97;1.70;;;;;;;12.17;79.96;99775.79;1786223;78;21958;-71
2021/09/20 09:05:20;;;;;;;4.03;2.10;;;;;;;12.25;79.69;99782.41;1779409;80;21465;-70
2021/09/20 09:07:54;;;;;;;3.70;1.87;;;;;;;12.27;79.66;99781.56;1783661;78;21422;-69
2021/09/20 09:10:29;;;;;;;2.77;1.70;;;;;;;12.27;79.66;99781.56;1779961;78;21399;-71
2021/09/20 09:12:57;;;;;;;4.20;1.70;;;;;;;12.32;79.62;99792.22;1782423;78;21897;-71
2021/09/20 09:15:25;;;;;;;3.13;1.70;;;;;;;12.30;79.06;99789.02;1788905;78;21559;-69
2021/09/20 09:17:56;;;;;;;3.20;1.80;;;;;;;12.25;78.72;99796.59;1770471;78;22067;-69
2021/09/20 09:20:32;;;;;;;4.00;2.00;;;;;;;12.30;78.85;99807.77;1768493;78;21781;-69
2021/09/20 09:23:08;;;;;;;3.30;1.77;;;;;;;12.59;78.36;99804.99;1769797;80;21501;-69
2021/09/20 09:25:46;;;;;;;2.20;1.50;;;;;;;12.74;78.37;99805.34;1780483;79;22090;-70
2021/09/20 09:28:22;;;;;;;3.17;1.40;;;;;;;12.74;76.54;99810.16;1784609;78;21457;-69
2021/09/20 09:30:55;;;;;;;4.03;1.90;;;;;;;12.74;76.54;99810.16;1778797;79;21395;-71
2021/09/20 09:33:35;;;;;;;2.90;1.70;;;;;;;12.56;76.50;99819.75;1782083;79;21520;-70
2021/09/20 09:36:04;;;;;;;2.17;1.42;;;;;;;12.56;76.50;99819.75;1776096;78;22018;-71
2021/09/20 09:38:30;;;;;;;3.67;1.60;;;;;;;12.63;77.26;99824.75;1792057;78;20995;-69
2021/09/20 09:41:01;;;;;;;4.03;1.50;;;;;;;12.67;77.79;99813.73;1793568;79;21525;-70
2021/09/20 09:43:34;;;;;;;2.52;1.57;;;;;;;12.73;77.70;99829.98;1765491;79;21665;-70
2021/09/20 09:46:18;;;;;;;2.20;1.40;;;;;;;12.72;76.93;99827.05;1780471;78;21121;-70
2021/09/20 09:48:47;;;;;;;2.37;1.10;;;;;;;12.64;76.02;99825.83;1781212;79;22256;-69
2021/09/20 09:51:13;;;;;;;5.63;1.20;;;;;;;12.74;76.65;99836.16;1786203;78;21705;-69
2021/09/20 09:53:43;;;;;;;1.73;1.10;;;;;;;12.74;76.65;99836.16;1802573;78;22443;-69
2021/09/20 09:56:21;;;;;;;1.63;1.10;;;;;;;12.78;76.24;99825.90;1791957;80;21689;-69
2021/09/20 09:59:02;;;;;;;2.17;1.30;;;;;;;12.82;76.74;99840.85;1789390;78;21532;-70
2021/09/20 10:01:35;;;;;;;2.33;1.23;;;;;;;12.80;76.44;99835.80;1786735;78;22116;-69
2021/09/20 10:04:05;;;;;;;1.43;1.10;;;;;;;12.75;76.21;99839.08;1788493;78;21724;-70
2021/09/20 10:06:44;;;;;;;1.90;1.13;;;;;;;12.75;76.17;99839.88;1787940;78;21734;-70
2021/09/20 10:09:25;;;;;;;2.87;1.10;;;;;;;12.75;76.17;99839.88;1803344;78;22057;-69
2021/09/20 10:11:55;;;;;;;2.73;1.23;;;;;;;12.78;76.08;99846.55;1789007;78;21572;-69
2021/09/20 10:14:26;;;;;;;2.23;1.10;;;;;;;12.86;75.95;99845.89;1764207;78;21698;-69
2021/09/20 10:16:55;;;;;;;1.13;0.80;;;;;;;12.91;75.91;99847.17;1782626;78;21723;-69
2021/09/20 10:19:25;;;;;;;1.40;0.90;;;;;;;12.96;75.75;99843.61;1758396;79;21558;-71
2021/09/20 10:21:52;;;;;;;2.23;0.90;;;;;;;12.99;74.86;99841.14;1786917;79;21070;-70
2021/09/20 10:24:21;;;;;;;1.60;0.97;;;;;;;13.07;74.54;99849.09;1782472;78;21904;-70
2021/09/20 10:26:47;;;;;;;1.57;0.90;;;;;;;13.07;74.54;99849.09;1760825;79;22108;-69
2021/09/20 10:29:17;;;;;;;1.73;1.10;;;;;;;13.11;75.04;99848.20;1759380;80;22347;-68
2021/09/20 10:31:46;;;;;;;3.20;1.40;;;;;;;13.18;75.06;99861.25;1725935;81;21706;-70
2021/09/20 10:34:24;;;;;;;2.60;1.10;;;;;;;13.20;75.23;99848.36;1797649;78;21921;-70
2021/09/20 10:37:07;;;;;;;1.83;1.10;;;;;;;13.09;74.63;99858.97;1753522;79;21667;-69
2021/09/20 10:40:01;;;;;;;1.27;1.03;;;;;;;13.04;75.67;99866.55;1760636;80;21670;-71
2021/09/20 10:42:47;;;;;;;2.70;1.05;;;;;;;13.04;75.67;99866.55;1791566;79;21684;-69
2021/09/20 10:45:39;;;;;;;1.67;1.00;;;;;;;13.07;75.71;99863.84;1793230;79;20936;-68
2021/09/20 10:48:43;;;;;;;1.23;0.80;;;;;;;13.07;75.71;99863.84;1777640;78;21839;-69
2021/09/20 10:51:23;;;;;;;2.57;1.00;;;;;;;13.08;75.14;99869.44;1790175;78;21758;-69
2021/09/20 10:54:13;;;;;;;1.30;0.90;;;;;;;12.99;74.92;99863.13;1787352;78;21728;-69
2021/09/20 10:56:40;;;;;;;0.67;0.60;;;;;;;12.87;75.36;99868.39;1755584;80;21137;-69
2021/09/20 10:59:12;;;;;;;1.67;0.83;;;;;;;12.85;76.41;99871.09;1785584;78;21691;-69
2021/09/20 11:01:43;;;;;;;1.62;0.90;;;;;;;12.85;76.41;99871.09;1790563;78;22019;-70
2021/09/20 11:04:24;;;;;;;3.63;1.00;;;;;;;12.95;75.66;99860.23;1782956;78;21117;-69
2021/09/20 11:07:16;;;;;;;2.10;0.90;;;;;;;13.04;75.28;99867.89;1794135;78;22183;-70
2021/09/20 11:09:46;;;;;;;;;;;;;;;13.12;75.10;99874.47;1788115;78;21752;-69
2021/09/20 11:12:16;;;;;;;1.90;1.00;;;;;;;13.08;73.99;99875.59;1792353;78;20155;-70
2021/09/20 11:15:08;;;;;;;1.90;1.07;;;;;;;13.02;74.28;99878.09;1793510;78;22199;-71
2021/09/20 11:17:42;;;;;;;1.80;1.05;;;;;;;12.99;74.38;99887.26;1787579;78;21612;-70
2021/09/20 11:20:24;;;;;;;3.63;1.50;;;;;;;12.91;74.63;99876.10;1791965;80;21773;-70
2021/09/20 11:23:18;;;;;;;3.50;1.47;;;;;;;12.92;75.05;99888.95;1802146;78;22139;-72
2021/09/20 11:26:16;;;;;;;3.20;1.20;;;;;;;12.93;74.72;99898.58;1786823;78;20963;-71
2021/09/20 11:28:49;;;;;;;3.00;1.40;;;;;;;12.80;75.18;99892.59;1779108;79;21723;-70
2021/09/20 11:31:16;;;;;;;2.10;1.20;;;;;;;12.67;75.13;99891.44;1778102;78;21413;-70
2021/09/20 11:33:47;;;;;;;1.70;1.10;;;;;;;12.60;75.39;99890.45;1785706;78;22021;-71
2021/09/20 11:36:22;;;;;;;1.60;1.10;;;;;;;12.60;74.95;99894.98;1785222;78;21609;-70
2021/09/20 11:39:07;;;;;;;1.20;1.00;;;;;;;12.62;75.44;99910.24;1769123;79;21538;-68
2021/09/20 11:41:36;;;;;;;2.67;1.27;;;;;;;12.61;75.53;99891.23;1781234;79;21618;-70
2021/09/20 11:44:04;;;;;;;1.93;1.30;;;;;;;12.61;75.53;99891.23;1782593;79;22328;-71
2021/09/20 11:46:31;;;;;;;2.90;1.40;;;;;;;12.61;74.79;99889.91;1786052;78;21736;-69
2021/09/20 11:49:08;;;;;;;1.70;1.03;;;;;;;12.62;74.85;99887.47;1768444;79;21606;-69
2021/09/20 11:51:38;;;;;;;2.47;1.20;;;;;;;12.69;75.14;99893.27;1776157;79;23054;-71
2021/09/20 11:54:06;;;;;;;2.53;1.00;;;;;;;12.79;75.18;99893.69;1782238;79;21677;-69
2021/09/20 11:56:32;;;;;;;1.60;1.10;;;;;;;12.82;74.52;99897.92;1806074;78;22088;-69